createdAt,value
2018-05-15T00:00:47.486Z,93.69
2018-05-15T00:01:47.487Z,94.21
2018-05-15T00:02:47.485Z,94.02
2018-05-15T00:03:47.479Z,94.69
2018-05-15T00:04:47.479Z,94.89
2018-05-15T00:05:47.476Z,94.98
2018-05-15T00:06:47.473Z,95.07
2018-05-15T00:07:47.470Z,95.17
2018-05-15T00:08:47.468Z,95.84
2018-05-15T00:09:47.468Z,95.46
2018-05-15T00:10:47.470Z,95.17
2018-05-15T00:11:47.461Z,95.36
2018-05-15T00:12:47.460Z,95.41
2018-05-15T00:13:47.461Z,95.70
2018-05-15T00:14:47.455Z,96.03
2018-05-15T00:15:47.453Z,95.98
2018-05-15T00:16:47.450Z,96.18
2018-05-15T00:17:47.448Z,96.18
2018-05-15T00:18:47.445Z,96.56
2018-05-15T00:19:47.444Z,96.94
2018-05-15T00:20:47.441Z,96.84
2018-05-15T00:21:47.440Z,96.84
2018-05-15T00:22:47.436Z,96.94
2018-05-15T00:23:47.434Z,96.84
2018-05-15T00:24:47.432Z,96.94
2018-05-15T00:25:47.429Z,96.84
2018-05-15T00:26:47.426Z,97.71
2018-05-15T00:27:47.423Z,97.61
2018-05-15T00:28:47.421Z,97.90
2018-05-15T00:29:47.418Z,97.71
2018-05-15T00:30:47.416Z,97.52
2018-05-15T00:31:47.416Z,97.61
2018-05-15T00:32:47.411Z,97.71
2018-05-15T00:33:47.408Z,97.71
2018-05-15T00:34:47.406Z,97.71
2018-05-15T00:35:47.404Z,97.71
2018-05-15T00:36:47.401Z,98.19
2018-05-15T00:37:47.399Z,97.95
2018-05-15T00:38:47.395Z,97.66
2018-05-15T00:39:47.393Z,97.28
2018-05-15T00:40:47.390Z,97.47
2018-05-15T00:41:47.396Z,97.47
2018-05-15T00:42:47.384Z,97.85
2018-05-15T00:43:47.382Z,97.66
2018-05-15T00:44:47.379Z,98.14
2018-05-15T00:45:47.377Z,98.04
2018-05-15T00:46:47.373Z,98.71
2018-05-15T00:47:47.371Z,98.52
2018-05-15T00:48:47.368Z,97.85
2018-05-15T00:49:47.370Z,98.24
2018-05-15T00:50:47.366Z,97.75
2018-05-15T00:51:47.364Z,97.75
2018-05-15T00:52:47.364Z,98.04
2018-05-15T00:53:47.354Z,98.33
2018-05-15T00:54:47.350Z,98.61
2018-05-15T00:55:47.349Z,98.52
2018-05-15T00:56:47.345Z,98.52
2018-05-15T00:57:47.349Z,98.52
2018-05-15T00:58:47.344Z,98.33
2018-05-15T00:59:47.343Z,98.33
2018-05-15T01:00:47.338Z,98.61
2018-05-15T01:01:47.332Z,98.33
2018-05-15T01:02:47.329Z,98.33
2018-05-15T01:03:47.332Z,98.71
2018-05-15T01:04:47.327Z,98.14
2018-05-15T01:05:47.320Z,98.14
2018-05-15T01:06:47.319Z,98.47
2018-05-15T01:07:47.313Z,98.66
2018-05-15T01:08:47.315Z,98.43
2018-05-15T01:09:47.313Z,98.66
2018-05-15T01:10:47.308Z,98.28
2018-05-15T01:11:47.306Z,98.28
2018-05-15T01:12:47.303Z,98.28
2018-05-15T01:13:47.300Z,98.28
2018-05-15T01:14:47.292Z,98.38
2018-05-15T01:15:47.293Z,98.47
2018-05-15T01:16:47.287Z,98.38
2018-05-15T01:17:47.290Z,98.47
2018-05-15T01:18:47.286Z,98.28
2018-05-15T01:19:47.278Z,98.47
2018-05-15T01:20:47.279Z,98.28
2018-05-15T01:21:47.278Z,98.28
2018-05-15T01:22:47.273Z,98.57
2018-05-15T01:23:47.269Z,98.47
2018-05-15T01:24:47.267Z,98.85
2018-05-15T01:25:47.261Z,98.28
2018-05-15T01:26:47.256Z,98.85
2018-05-15T01:27:47.253Z,99.14
2018-05-15T01:28:47.250Z,98.95
2018-05-15T01:29:47.254Z,99.62
2018-05-15T01:30:47.248Z,99.43
2018-05-15T01:31:47.246Z,99.71
2018-05-15T01:32:47.244Z,99.99
2018-05-15T01:33:47.236Z,99.33
2018-05-15T01:34:47.230Z,99.43
2018-05-15T01:35:47.234Z,98.95
2018-05-15T01:36:47.229Z,98.85
2018-05-15T01:37:47.222Z,98.95
2018-05-15T01:38:47.218Z,99.33
2018-05-15T01:39:47.215Z,99.04
2018-05-15T01:40:47.212Z,99.62
2018-05-15T01:41:47.215Z,99.52
2018-05-15T01:42:47.214Z,99.43
2018-05-15T01:43:47.208Z,99.52
2018-05-15T01:44:47.204Z,99.14
2018-05-15T01:45:47.196Z,99.24
2018-05-15T01:46:47.194Z,99.43
2018-05-15T01:47:47.190Z,99.43
2018-05-15T01:48:47.186Z,99.52
2018-05-15T01:49:47.188Z,99.14
2018-05-15T01:50:47.185Z,99.62
2018-05-15T01:51:47.177Z,99.43
2018-05-15T01:52:47.174Z,99.09
2018-05-15T01:53:47.221Z,99.38
2018-05-15T01:54:47.171Z,99.85
2018-05-15T01:55:47.170Z,99.76
2018-05-15T01:56:47.163Z,99.99
2018-05-15T01:57:47.156Z,99.95
2018-05-15T01:58:47.152Z,99.76
2018-05-15T01:59:47.148Z,99.99
2018-05-15T02:00:47.145Z,99.85
2018-05-15T02:01:47.146Z,99.57
2018-05-15T02:02:47.142Z,99.76
2018-05-15T02:03:47.140Z,99.99
2018-05-15T02:04:47.137Z,99.85
2018-05-15T02:05:47.128Z,99.85
2018-05-15T02:06:47.125Z,99.95
2018-05-15T02:07:47.127Z,99.85
2018-05-15T02:08:47.124Z,99.66
2018-05-15T02:09:47.114Z,99.19
2018-05-15T02:10:47.111Z,98.80
2018-05-15T02:11:47.107Z,98.99
2018-05-15T02:12:47.104Z,98.90
2018-05-15T02:13:47.105Z,98.23
2018-05-15T02:14:47.101Z,98.61
2018-05-15T02:15:47.099Z,98.23
2018-05-15T02:16:47.094Z,98.33
2018-05-15T02:17:47.087Z,98.42
2018-05-15T02:18:47.082Z,98.23
2018-05-15T02:19:47.084Z,98.42
2018-05-15T02:20:47.077Z,97.94
2018-05-15T02:21:47.081Z,98.04
2018-05-15T02:22:47.073Z,97.66
2018-05-15T02:23:47.065Z,98.13
2018-05-15T02:24:47.062Z,98.42
2018-05-15T02:25:47.063Z,98.42
2018-05-15T02:26:47.059Z,98.23
2018-05-15T02:27:47.057Z,98.23
2018-05-15T02:28:47.052Z,98.42
2018-05-15T02:29:47.045Z,98.52
2018-05-15T02:30:47.041Z,98.80
2018-05-15T02:31:47.037Z,98.90
2018-05-15T02:32:47.035Z,98.42
2018-05-15T02:33:47.035Z,98.23
2018-05-15T02:34:47.031Z,97.28
2018-05-15T02:35:47.031Z,97.66
2018-05-15T02:36:47.029Z,97.18
2018-05-15T02:37:47.016Z,96.61
2018-05-15T02:38:47.019Z,96.61
2018-05-15T02:39:47.018Z,96.61
2018-05-15T02:40:47.011Z,96.61
2018-05-15T02:41:47.003Z,95.75
2018-05-15T02:42:46.997Z,95.94
2018-05-15T02:43:46.994Z,96.03
2018-05-15T02:44:46.990Z,96.22
2018-05-15T02:45:46.997Z,95.65
2018-05-15T02:46:46.987Z,96.42
2018-05-15T02:47:46.985Z,96.03
2018-05-15T02:48:46.981Z,96.32
2018-05-15T02:49:46.985Z,96.42
2018-05-15T02:50:46.969Z,96.22
2018-05-15T02:51:46.965Z,96.03
2018-05-15T02:52:46.961Z,96.80
2018-05-15T02:53:46.964Z,96.61
2018-05-15T02:54:46.959Z,96.99
2018-05-15T02:55:46.953Z,96.61
2018-05-15T02:56:46.947Z,97.37
2018-05-15T02:57:46.944Z,96.89
2018-05-15T02:58:46.947Z,97.85
2018-05-15T02:59:46.942Z,97.56
2018-05-15T03:00:46.936Z,97.47
2018-05-15T03:01:46.929Z,97.32
2018-05-15T03:02:46.924Z,97.37
2018-05-15T03:03:46.920Z,97.28
2018-05-15T03:04:46.918Z,97.71
2018-05-15T03:05:46.919Z,97.61
2018-05-15T03:06:46.914Z,97.23
2018-05-15T03:07:46.909Z,97.52
2018-05-15T03:08:46.907Z,97.42
2018-05-15T03:09:46.898Z,97.61
2018-05-15T03:10:46.893Z,97.42
2018-05-15T03:11:46.967Z,97.61
2018-05-15T03:12:46.890Z,97.61
2018-05-15T03:13:46.882Z,97.71
2018-05-15T03:14:46.878Z,97.61
2018-05-15T03:15:46.875Z,97.32
2018-05-15T03:16:46.871Z,97.42
2018-05-15T03:17:46.873Z,97.61
2018-05-15T03:18:46.867Z,97.80
2018-05-15T03:19:46.865Z,97.71
2018-05-15T03:20:46.862Z,98.28
2018-05-15T03:21:46.853Z,98.47
2018-05-15T03:22:46.849Z,98.28
2018-05-15T03:23:46.844Z,98.66
2018-05-15T03:24:46.840Z,98.66
2018-05-15T03:25:46.842Z,98.66
2018-05-15T03:26:46.836Z,98.66
2018-05-15T03:27:46.829Z,98.66
2018-05-15T03:28:46.825Z,98.85
2018-05-15T03:29:46.825Z,99.14
2018-05-15T03:30:46.821Z,99.33
2018-05-15T03:31:46.819Z,99.33
2018-05-15T03:32:46.814Z,99.99
2018-05-15T03:33:46.805Z,99.90
2018-05-15T03:34:46.805Z,99.80
2018-05-15T03:35:46.798Z,99.71
2018-05-15T03:36:46.794Z,99.99
2018-05-15T03:37:46.794Z,99.90
2018-05-15T03:38:46.790Z,99.62
2018-05-15T03:39:46.786Z,99.80
2018-05-15T03:40:46.781Z,99.99
2018-05-15T03:41:46.774Z,99.71
2018-05-15T03:42:46.769Z,99.71
2018-05-15T03:43:46.769Z,99.90
2018-05-15T03:44:46.765Z,99.85
2018-05-15T03:45:46.757Z,99.47
2018-05-15T03:46:46.754Z,99.47
2018-05-15T03:47:46.748Z,99.85
2018-05-15T03:48:46.745Z,99.37
2018-05-15T03:49:46.747Z,99.95
2018-05-15T03:50:46.741Z,99.99
2018-05-15T03:51:46.738Z,99.47
2018-05-15T03:52:46.735Z,99.57
2018-05-15T03:53:46.725Z,99.85
2018-05-15T03:54:46.721Z,99.95
2018-05-15T03:55:46.719Z,99.76
2018-05-15T03:56:46.712Z,99.76
2018-05-15T03:57:46.718Z,99.47
2018-05-15T03:58:46.707Z,99.37
2018-05-15T03:59:46.700Z,99.57
2018-05-15T04:00:46.696Z,99.57
2018-05-15T04:01:46.697Z,99.37
2018-05-15T04:02:46.691Z,99.95
2018-05-15T04:03:46.696Z,99.76
2018-05-15T04:04:46.684Z,99.57
2018-05-15T04:05:46.675Z,99.76
2018-05-15T04:06:46.672Z,99.99
2018-05-15T04:07:46.666Z,99.76
2018-05-15T04:08:46.684Z,99.76
2018-05-15T04:09:46.663Z,99.57
2018-05-15T04:10:46.730Z,99.85
2018-05-15T04:11:46.657Z,99.57
2018-05-15T04:12:46.652Z,99.57
2018-05-15T04:13:46.643Z,99.85
2018-05-15T04:14:46.639Z,99.95
2018-05-15T04:15:46.640Z,99.47
2018-05-15T04:16:46.636Z,99.47
2018-05-15T04:17:46.627Z,98.99
2018-05-15T04:18:46.622Z,99.28
2018-05-15T04:19:46.620Z,99.28
2018-05-15T04:20:46.614Z,98.90
2018-05-15T04:21:46.614Z,99.08
2018-05-15T04:22:46.613Z,99.18
2018-05-15T04:23:46.611Z,98.99
2018-05-15T04:24:46.602Z,99.08
2018-05-15T04:25:46.594Z,98.99
2018-05-15T04:26:46.593Z,98.90
2018-05-15T04:27:46.586Z,98.80
2018-05-15T04:28:46.582Z,98.52
2018-05-15T04:29:46.584Z,98.13
2018-05-15T04:30:46.578Z,98.32
2018-05-15T04:31:46.570Z,98.47
2018-05-15T04:32:46.569Z,98.37
2018-05-15T04:33:46.570Z,98.61
2018-05-15T04:34:46.562Z,98.18
2018-05-15T04:35:46.557Z,98.66
2018-05-15T04:36:46.555Z,98.18
2018-05-15T04:37:46.547Z,98.57
2018-05-15T04:38:46.541Z,97.80
2018-05-15T04:39:46.539Z,97.52
2018-05-15T04:40:46.537Z,96.94
2018-05-15T04:41:46.535Z,97.18
2018-05-15T04:42:46.532Z,96.42
2018-05-15T04:43:46.617Z,96.89
2018-05-15T04:44:46.525Z,96.32
2018-05-15T04:45:46.518Z,95.61
2018-05-15T04:46:46.514Z,95.03
2018-05-15T04:47:46.516Z,94.84
2018-05-15T04:48:46.512Z,93.31
2018-05-15T04:49:46.505Z,93.26
2018-05-15T04:50:46.505Z,92.88
2018-05-15T04:51:46.499Z,92.11
2018-05-15T04:52:46.497Z,91.30
2018-05-15T04:53:46.503Z,90.96
2018-05-15T04:54:46.498Z,88.28
2018-05-15T04:55:46.579Z,85.93
2018-05-15T04:56:46.496Z,86.35
2018-05-15T04:57:46.490Z,85.15
2018-05-15T04:58:46.493Z,82.21
2018-05-15T04:59:46.488Z,80.63
2018-05-15T05:00:46.488Z,79.80
2018-05-15T05:01:46.493Z,76.77
2018-05-15T05:02:46.492Z,76.14
2018-05-15T05:03:46.487Z,73.09
2018-05-15T05:04:46.486Z,69.76
2018-05-15T05:05:46.493Z,67.68
2018-05-15T05:06:46.495Z,66.75
2018-05-15T05:07:46.495Z,66.20
2018-05-15T05:08:46.495Z,64.40
2018-05-15T05:09:46.490Z,62.41
2018-05-15T05:10:46.491Z,61.09
2018-05-15T05:11:46.525Z,59.58
2018-05-15T05:12:46.496Z,58.25
2018-05-15T05:13:46.502Z,57.12
2018-05-15T05:14:46.505Z,56.95
2018-05-15T05:15:46.504Z,56.50
2018-05-15T05:16:46.507Z,55.66
2018-05-15T05:17:46.505Z,53.65
2018-05-15T05:18:46.507Z,52.17
2018-05-15T05:19:46.513Z,51.13
2018-05-15T05:20:46.517Z,50.45
2018-05-15T05:21:46.516Z,49.80
2018-05-15T05:22:46.524Z,48.90
2018-05-15T05:23:46.522Z,48.83
2018-05-15T05:24:46.527Z,48.57
2018-05-15T05:25:46.535Z,47.89
2018-05-15T05:26:46.536Z,47.33
2018-05-15T05:27:46.543Z,47.35
2018-05-15T05:28:46.545Z,46.48
2018-05-15T05:29:46.545Z,46.38
2018-05-15T05:30:46.547Z,46.38
2018-05-15T05:31:46.552Z,44.95
2018-05-15T05:32:46.557Z,44.38
2018-05-15T05:33:46.568Z,43.90
2018-05-15T05:34:46.570Z,43.66
2018-05-15T05:35:46.572Z,43.64
2018-05-15T05:36:46.575Z,43.66
2018-05-15T05:37:46.584Z,43.76
2018-05-15T05:38:46.590Z,43.10
2018-05-15T05:39:46.595Z,43.88
2018-05-15T05:40:46.599Z,43.27
2018-05-15T05:41:46.601Z,43.18
2018-05-15T05:42:46.605Z,43.10
2018-05-15T05:43:46.610Z,42.71
2018-05-15T05:44:46.616Z,42.66
2018-05-15T05:45:46.627Z,42.00
2018-05-15T05:46:46.632Z,41.80
2018-05-15T05:47:46.636Z,40.64
2018-05-15T05:48:46.642Z,40.44
2018-05-15T05:49:46.644Z,39.88
2018-05-15T05:50:46.648Z,39.47
2018-05-15T05:51:46.660Z,39.78
2018-05-15T05:52:46.665Z,39.61
2018-05-15T05:53:46.667Z,39.12
2018-05-15T05:54:46.677Z,38.83
2018-05-15T05:55:46.679Z,38.40
2018-05-15T05:56:46.685Z,38.50
2018-05-15T05:57:46.696Z,38.67
2018-05-15T05:58:46.703Z,39.06
2018-05-15T05:59:46.709Z,39.08
2018-05-15T06:00:46.717Z,39.03
2018-05-15T06:01:46.720Z,39.22
2018-05-15T06:02:46.724Z,38.83
2018-05-15T06:03:46.731Z,38.85
2018-05-15T06:04:46.738Z,38.64
2018-05-15T06:05:46.753Z,38.26
2018-05-15T06:06:46.756Z,38.09
2018-05-15T06:07:46.759Z,37.39
2018-05-15T06:08:46.767Z,37.21
2018-05-15T06:09:46.778Z,37.19
2018-05-15T06:10:46.785Z,37.10
2018-05-15T06:11:46.795Z,37.14
2018-05-15T06:12:46.800Z,38.03
2018-05-15T06:13:46.804Z,38.15
2018-05-15T06:14:46.811Z,37.97
2018-05-15T06:15:46.820Z,37.10
2018-05-15T06:16:46.826Z,37.02
2018-05-15T06:17:46.838Z,36.63
2018-05-15T06:18:46.846Z,36.82
2018-05-15T06:19:46.856Z,36.84
2018-05-15T06:20:46.970Z,36.57
2018-05-15T06:21:46.867Z,36.10
2018-05-15T06:22:46.878Z,35.24
2018-05-15T06:23:46.887Z,34.63
2018-05-15T06:24:46.896Z,35.12
2018-05-15T06:25:46.903Z,35.00
2018-05-15T06:26:46.907Z,35.12
2018-05-15T06:27:46.916Z,35.30
2018-05-15T06:28:46.925Z,34.91
2018-05-15T06:29:46.943Z,34.21
2018-05-15T06:30:46.946Z,34.61
2018-05-15T06:31:46.954Z,34.84
2018-05-15T06:32:46.964Z,34.45
2018-05-15T06:33:46.972Z,34.39
2018-05-15T06:34:46.977Z,33.51
2018-05-15T06:35:46.986Z,33.01
2018-05-15T06:36:46.996Z,32.92
2018-05-15T06:37:47.011Z,33.23
2018-05-15T06:38:47.020Z,32.91
2018-05-15T06:39:47.025Z,32.50
2018-05-15T06:40:47.035Z,32.73
2018-05-15T06:41:47.050Z,32.65
2018-05-15T06:42:47.059Z,32.21
2018-05-15T06:43:47.068Z,31.82
2018-05-15T06:44:47.164Z,32.62
2018-05-15T06:45:47.084Z,32.52
2018-05-15T06:46:47.097Z,32.31
2018-05-15T06:47:47.103Z,32.52
2018-05-15T06:48:47.115Z,32.23
2018-05-15T06:49:47.128Z,31.74
2018-05-15T06:50:47.138Z,32.81
2018-05-15T06:51:47.149Z,32.23
2018-05-15T06:52:47.161Z,32.14
2018-05-15T06:53:47.166Z,31.48
2018-05-15T06:54:47.176Z,31.85
2018-05-15T06:55:47.192Z,31.45
2018-05-15T06:56:47.202Z,31.70
2018-05-15T06:57:47.209Z,32.03
2018-05-15T06:58:47.219Z,32.47
2018-05-15T06:59:47.280Z,32.57
2018-05-15T07:00:47.241Z,33.07
2018-05-15T07:01:47.268Z,33.07
2018-05-15T07:02:47.266Z,32.84
2018-05-15T07:03:47.277Z,33.62
2018-05-15T07:04:47.290Z,33.67
2018-05-15T07:05:47.296Z,33.69
2018-05-15T07:06:47.307Z,33.04
2018-05-15T07:07:47.408Z,32.08
2018-05-15T07:08:47.328Z,33.25
2018-05-15T07:09:47.351Z,33.87
2018-05-15T07:10:47.356Z,33.06
2018-05-15T07:11:47.363Z,32.58
2018-05-15T07:12:47.374Z,32.96
2018-05-15T07:13:47.392Z,33.34
2018-05-15T07:14:47.402Z,32.76
2018-05-15T07:15:47.413Z,33.38
2018-05-15T07:16:47.424Z,32.58
2018-05-15T07:17:47.431Z,32.81
2018-05-15T07:18:47.441Z,32.32
2018-05-15T07:19:47.453Z,31.45
2018-05-15T07:20:47.466Z,31.74
2018-05-15T07:21:47.483Z,32.01
2018-05-15T07:22:47.494Z,32.42
2018-05-15T07:23:47.507Z,31.45
2018-05-15T07:24:47.516Z,31.95
2018-05-15T07:25:47.525Z,31.65
2018-05-15T07:26:47.535Z,31.49
2018-05-15T07:27:47.552Z,31.45
2018-05-15T07:28:47.564Z,31.43
2018-05-15T07:29:47.572Z,31.51
2018-05-15T07:30:47.584Z,32.16
2018-05-15T07:31:47.597Z,32.58
2018-05-15T07:32:47.610Z,32.11
2018-05-15T07:33:47.627Z,32.62
2018-05-15T07:34:47.645Z,32.21
2018-05-15T07:35:47.653Z,32.23
2018-05-15T07:36:47.663Z,32.81
2018-05-15T07:37:47.671Z,31.77
2018-05-15T07:38:47.683Z,32.58
2018-05-15T07:39:47.698Z,31.05
2018-05-15T07:40:47.709Z,31.25
2018-05-15T07:41:47.726Z,31.30
2018-05-15T07:42:47.739Z,32.26
2018-05-15T07:43:47.746Z,32.84
2018-05-15T07:44:47.760Z,33.73
2018-05-15T07:45:47.779Z,33.98
2018-05-15T07:46:47.789Z,33.25
2018-05-15T07:47:47.805Z,31.83
2018-05-15T07:48:47.822Z,30.67
2018-05-15T07:49:47.825Z,30.70
2018-05-15T07:50:47.837Z,29.33
2018-05-15T07:51:47.852Z,28.95
2018-05-15T07:52:47.866Z,28.27
2018-05-15T07:53:47.884Z,27.73
2018-05-15T07:54:47.897Z,28.02
2018-05-15T07:55:47.910Z,28.18
2018-05-15T07:56:47.924Z,28.69
2018-05-15T07:57:47.934Z,29.43
2018-05-15T07:58:47.948Z,28.29
2018-05-15T07:59:47.969Z,29.44
2018-05-15T08:00:47.981Z,29.87
2018-05-15T08:01:47.991Z,29.91
2018-05-15T08:02:48.004Z,29.25
2018-05-15T08:03:48.020Z,28.00
2018-05-15T08:04:48.034Z,27.57
2018-05-15T08:05:48.055Z,27.95
2018-05-15T08:06:48.067Z,28.26
2018-05-15T08:07:48.083Z,27.83
2018-05-15T08:08:48.099Z,27.64
2018-05-15T08:09:48.109Z,27.94
2018-05-15T08:10:48.123Z,28.12
2018-05-15T08:11:48.139Z,27.90
2018-05-15T08:12:48.154Z,28.47
2018-05-15T08:13:48.173Z,29.34
2018-05-15T08:14:48.188Z,29.06
2018-05-15T08:15:48.202Z,29.07
2018-05-15T08:16:48.216Z,29.13
2018-05-15T08:17:48.237Z,29.64
2018-05-15T08:18:48.251Z,29.30
2018-05-15T08:19:48.267Z,28.37
2018-05-15T08:20:48.280Z,26.59
2018-05-15T08:21:48.292Z,26.80
2018-05-15T08:22:48.307Z,26.42
2018-05-15T08:23:48.322Z,26.15
2018-05-15T08:24:48.338Z,25.68
2018-05-15T08:25:48.358Z,24.97
2018-05-15T08:26:48.375Z,25.26
2018-05-15T08:27:48.390Z,25.55
2018-05-15T08:28:48.412Z,25.95
2018-05-15T08:29:48.419Z,25.39
2018-05-15T08:30:48.506Z,24.13
2018-05-15T08:31:48.455Z,24.62
2018-05-15T08:32:48.473Z,24.19
2018-05-15T08:33:48.484Z,24.19
2018-05-15T08:34:48.500Z,24.18
2018-05-15T08:35:48.517Z,24.97
2018-05-15T08:36:48.534Z,25.07
2018-05-15T08:37:48.560Z,25.18
2018-05-15T08:38:48.572Z,24.51
2018-05-15T08:39:48.589Z,23.93
2018-05-15T08:40:48.606Z,24.40
2018-05-15T08:41:48.619Z,24.21
2018-05-15T08:42:48.640Z,24.01
2018-05-15T08:43:48.654Z,24.51
2018-05-15T08:44:48.671Z,23.91
2018-05-15T08:45:48.693Z,23.72
2018-05-15T08:46:48.710Z,23.62
2018-05-15T08:47:48.722Z,23.20
2018-05-15T08:48:48.739Z,23.72
2018-05-15T08:49:48.762Z,24.12
2018-05-15T08:50:48.781Z,22.89
2018-05-15T08:51:48.796Z,23.06
2018-05-15T08:52:48.812Z,22.67
2018-05-15T08:53:48.826Z,21.89
2018-05-15T08:54:48.842Z,21.70
2018-05-15T08:55:48.861Z,21.51
2018-05-15T08:56:48.881Z,20.98
2018-05-15T08:57:48.906Z,22.15
2018-05-15T08:58:48.924Z,22.46
2018-05-15T08:59:48.937Z,22.64
2018-05-15T09:00:48.958Z,22.44
2018-05-15T09:01:48.967Z,22.23
2018-05-15T09:02:48.984Z,22.24
2018-05-15T09:03:49.008Z,22.66
2018-05-15T09:04:49.029Z,22.63
2018-05-15T09:05:49.042Z,22.63
2018-05-15T09:06:49.056Z,22.67
2018-05-15T09:07:49.073Z,21.17
2018-05-15T09:08:49.092Z,21.39
2018-05-15T09:09:49.116Z,21.39
2018-05-15T09:10:49.134Z,21.08
2018-05-15T09:11:49.150Z,22.77
2018-05-15T09:12:49.179Z,23.51
2018-05-15T09:13:49.182Z,23.21
2018-05-15T09:14:49.199Z,22.52
2018-05-15T09:15:49.218Z,22.47
2018-05-15T09:16:49.237Z,24.73
2018-05-15T09:17:49.259Z,24.31
2018-05-15T09:18:49.277Z,24.07
2018-05-15T09:19:49.288Z,24.08
2018-05-15T09:20:49.307Z,24.42
2018-05-15T09:21:49.330Z,25.33
2018-05-15T09:22:49.347Z,25.12
2018-05-15T09:23:49.365Z,25.82
2018-05-15T09:24:49.380Z,25.26
2018-05-15T09:25:49.393Z,25.27
2018-05-15T09:26:49.410Z,26.06
2018-05-15T09:27:49.426Z,25.51
2018-05-15T09:28:49.444Z,23.94
2018-05-15T09:29:49.466Z,22.97
2018-05-15T09:30:49.482Z,22.95
2018-05-15T09:31:49.498Z,22.94
2018-05-15T09:32:49.515Z,23.24
2018-05-15T09:33:49.527Z,22.69
2018-05-15T09:34:49.543Z,22.66
2018-05-15T09:35:49.565Z,22.75
2018-05-15T09:36:49.581Z,23.34
2018-05-15T09:37:49.595Z,22.88
2018-05-15T09:38:49.611Z,22.41
2018-05-15T09:39:49.632Z,22.99
2018-05-15T09:40:49.645Z,22.03
2018-05-15T09:41:49.667Z,21.36
2018-05-15T09:42:49.683Z,21.17
2018-05-15T09:43:49.701Z,20.87
2018-05-15T09:44:49.717Z,20.93
2018-05-15T09:45:49.729Z,21.43
2018-05-15T09:46:49.788Z,21.73
2018-05-15T09:47:49.763Z,21.34
2018-05-15T09:48:49.780Z,21.14
2018-05-15T09:49:49.802Z,21.72
2018-05-15T09:50:49.819Z,22.11
2018-05-15T09:51:49.833Z,22.27
2018-05-15T09:52:49.851Z,23.05
2018-05-15T09:53:49.872Z,23.65
2018-05-15T09:54:49.889Z,23.69
2018-05-15T09:55:49.907Z,22.73
2018-05-15T09:56:49.924Z,22.33
2018-05-15T09:57:49.937Z,22.03
2018-05-15T09:58:49.954Z,21.26
2018-05-15T09:59:49.972Z,20.93
2018-05-15T10:00:49.991Z,22.52
2018-05-15T10:01:50.012Z,22.30
2018-05-15T10:02:50.080Z,22.47
2018-05-15T10:03:50.050Z,22.69
2018-05-15T10:04:50.063Z,22.96
2018-05-15T10:05:50.077Z,22.77
2018-05-15T10:06:50.094Z,23.09
2018-05-15T10:07:50.174Z,23.00
2018-05-15T10:08:50.135Z,22.22
2018-05-15T10:09:50.146Z,22.49
2018-05-15T10:10:50.163Z,22.88
2018-05-15T10:11:50.184Z,23.10
2018-05-15T10:12:50.198Z,22.41
2018-05-15T10:13:50.222Z,22.70
2018-05-15T10:14:50.239Z,22.52
2018-05-15T10:15:50.254Z,22.52
2018-05-15T10:16:50.274Z,23.93
2018-05-15T10:17:50.285Z,25.65
2018-05-15T10:18:50.302Z,26.45
2018-05-15T10:19:50.397Z,26.87
2018-05-15T10:20:50.337Z,27.67
2018-05-15T10:21:50.357Z,26.90
2018-05-15T10:22:50.373Z,26.92
2018-05-15T10:23:50.386Z,26.51
2018-05-15T10:24:50.403Z,26.64
2018-05-15T10:25:50.423Z,26.46
2018-05-15T10:26:50.439Z,25.51
2018-05-15T10:27:50.457Z,25.39
2018-05-15T10:28:50.473Z,25.24
2018-05-15T10:29:50.498Z,25.50
2018-05-15T10:30:50.506Z,27.05
2018-05-15T10:31:50.518Z,27.62
2018-05-15T10:32:50.533Z,28.19
2018-05-15T10:33:50.554Z,29.10
2018-05-15T10:34:50.568Z,28.81
2018-05-15T10:35:50.589Z,28.91
2018-05-15T10:36:50.600Z,28.81
2018-05-15T10:37:50.612Z,29.47
2018-05-15T10:38:50.626Z,29.00
2018-05-15T10:39:50.648Z,29.22
2018-05-15T10:40:50.667Z,28.26
2018-05-15T10:41:50.674Z,27.90
2018-05-15T10:42:50.688Z,27.53
2018-05-15T10:43:50.761Z,27.75
2018-05-15T10:44:50.721Z,25.88
2018-05-15T10:45:50.740Z,25.76
2018-05-15T10:46:50.754Z,27.28
2018-05-15T10:47:50.770Z,27.52
2018-05-15T10:48:50.786Z,28.50
2018-05-15T10:49:50.796Z,28.89
2018-05-15T10:50:50.838Z,29.61
2018-05-15T10:51:50.826Z,28.67
2018-05-15T10:52:50.841Z,27.95
2018-05-15T10:53:50.861Z,27.80
2018-05-15T10:54:50.875Z,26.90
2018-05-15T10:55:50.886Z,28.05
2018-05-15T10:56:50.903Z,28.36
2018-05-15T10:57:50.921Z,28.25
2018-05-15T10:58:50.935Z,28.57
2018-05-15T10:59:50.952Z,27.90
2018-05-15T11:00:50.966Z,27.87
2018-05-15T11:01:50.976Z,28.23
2018-05-15T11:02:50.990Z,28.16
2018-05-15T11:03:51.005Z,28.36
2018-05-15T11:04:51.020Z,28.47
2018-05-15T11:05:51.044Z,27.98
2018-05-15T11:06:51.053Z,28.47
2018-05-15T11:07:51.068Z,28.28
2018-05-15T11:08:51.082Z,28.45
2018-05-15T11:09:51.093Z,29.03
2018-05-15T11:10:51.106Z,29.53
2018-05-15T11:11:51.125Z,29.32
2018-05-15T11:12:51.250Z,29.61
2018-05-15T11:13:51.150Z,30.13
2018-05-15T11:14:51.162Z,30.68
2018-05-15T11:15:51.178Z,31.74
2018-05-15T11:16:51.191Z,31.82
2018-05-15T11:17:51.210Z,32.39
2018-05-15T11:18:51.222Z,33.20
2018-05-15T11:19:51.237Z,33.88
2018-05-15T11:20:51.252Z,33.70
2018-05-15T11:21:51.261Z,33.80
2018-05-15T11:22:51.268Z,32.91
2018-05-15T11:23:51.286Z,33.69
2018-05-15T11:24:51.292Z,33.01
2018-05-15T11:25:51.311Z,32.79
2018-05-15T11:26:51.319Z,33.17
2018-05-15T11:27:51.327Z,34.05
2018-05-15T11:28:51.341Z,34.45
2018-05-15T11:29:51.352Z,35.25
2018-05-15T11:30:51.361Z,34.86
2018-05-15T11:31:51.377Z,33.88
2018-05-15T11:32:51.382Z,33.28
2018-05-15T11:33:51.388Z,33.15
2018-05-15T11:34:51.401Z,33.34
2018-05-15T11:35:51.436Z,34.01
2018-05-15T11:36:51.416Z,34.85
2018-05-15T11:37:51.430Z,35.84
2018-05-15T11:38:51.436Z,35.84
2018-05-15T11:39:51.447Z,35.94
2018-05-15T11:40:51.455Z,35.35
2018-05-15T11:41:51.510Z,35.45
2018-05-15T11:42:51.466Z,36.13
2018-05-15T11:43:51.479Z,36.22
2018-05-15T11:44:51.495Z,37.01
2018-05-15T11:45:51.489Z,37.30
2018-05-15T11:46:51.496Z,37.22
2018-05-15T11:47:51.847Z,37.12
2018-05-15T11:48:51.947Z,36.73
2018-05-15T11:49:52.024Z,36.22
2018-05-15T11:50:52.384Z,36.52
2018-05-15T11:51:52.584Z,37.02
2018-05-15T11:52:52.584Z,37.22
2018-05-15T11:53:51.634Z,36.73
2018-05-15T11:54:51.554Z,36.83
2018-05-15T11:55:51.584Z,37.20
2018-05-15T11:56:51.570Z,36.32
2018-05-15T11:57:51.730Z,36.99
2018-05-15T11:58:51.587Z,36.89
2018-05-15T11:59:51.641Z,37.08
2018-05-15T12:00:51.597Z,37.98
2018-05-15T12:01:51.607Z,37.98
2018-05-15T12:02:51.613Z,38.25
2018-05-15T12:03:51.674Z,38.23
2018-05-15T12:04:51.625Z,38.23
2018-05-15T12:05:51.627Z,38.83
2018-05-15T12:06:51.633Z,38.81
2018-05-15T12:07:51.639Z,38.32
2018-05-15T12:08:51.645Z,38.42
2018-05-15T12:09:51.655Z,38.81
2018-05-15T12:10:51.661Z,39.20
2018-05-15T12:11:51.668Z,39.03
2018-05-15T12:12:51.703Z,39.22
2018-05-15T12:13:51.675Z,39.12
2018-05-15T12:14:51.680Z,38.71
2018-05-15T12:15:51.689Z,38.52
2018-05-15T12:16:51.696Z,38.42
2018-05-15T12:17:51.698Z,38.52
2018-05-15T12:18:51.702Z,38.23
2018-05-15T12:19:51.707Z,37.84
2018-05-15T12:20:51.713Z,38.13
2018-05-15T12:21:51.723Z,38.81
2018-05-15T12:22:51.731Z,38.42
2018-05-15T12:23:51.733Z,38.40
2018-05-15T12:24:51.740Z,38.89
2018-05-15T12:25:51.739Z,38.79
2018-05-15T12:26:51.744Z,39.08
2018-05-15T12:27:51.749Z,39.18
2018-05-15T12:28:51.755Z,39.65
2018-05-15T12:29:51.835Z,38.78
2018-05-15T12:30:51.770Z,38.78
2018-05-15T12:31:51.769Z,38.78
2018-05-15T12:32:51.776Z,38.78
2018-05-15T12:33:51.786Z,39.45
2018-05-15T12:34:51.789Z,40.23
2018-05-15T12:35:51.868Z,40.73
2018-05-15T12:36:51.799Z,40.15
2018-05-15T12:37:51.799Z,39.86
2018-05-15T12:38:51.803Z,39.86
2018-05-15T12:39:51.808Z,39.65
2018-05-15T12:40:51.813Z,39.65
2018-05-15T12:41:51.959Z,39.67
2018-05-15T12:42:51.830Z,40.05
2018-05-15T12:43:51.830Z,40.34
2018-05-15T12:44:51.835Z,40.26
2018-05-15T12:45:51.836Z,39.59
2018-05-15T12:46:51.889Z,39.78
2018-05-15T12:47:51.862Z,39.11
2018-05-15T12:48:51.888Z,38.91
2018-05-15T12:49:51.857Z,38.32
2018-05-15T12:50:51.858Z,38.40
2018-05-15T12:51:51.865Z,38.71
2018-05-15T12:52:51.868Z,38.91